Latest Weather Observations for Parndana

IDS60801

Issued at 12:31 pm CDT Thursday 23 March 2017 (issued every 30 minutes, with the page automatically refreshed every 10 minutes)

About weather observations | Map of weather stations | Latest weather observations for SA | Other Formats
Station Details ID: 022843 Name: PARNDANA CFS AWS Lat: -35.79 Lon: 137.25 Height: 165.0 m
Data from the previous 72 hours. | See also: Recent months at Parndana
Date/Time
CDT
Temp
°C
App
Temp
°C
Dew
Point
°C
Rel
Hum
%
Delta-T
°C
Wind Press
QNH
hPa
Press
MSL
hPa
Rain since
9am
mm
Dir  Spd
km/h
Gust
km/h
Spd
kts
Gust
kts
23/12:30pm 20.0 17.4 15.0 73 3.0 SE 22 24 12 13 - - -
23/12:00pm 20.2 17.1 14.6 70 3.3 ESE 24 32 13 17 - - 0.0
23/11:30am 18.8 15.6 14.3 75 2.6 ESE 24 30 13 16 - - 0.0
23/11:00am 18.2 14.9 14.1 77 2.4 ESE 24 30 13 16 - - 0.0
23/10:30am 17.9 14.6 14.0 78 2.2 ESE 24 35 13 19 - - 0.0
23/10:00am 17.6 14.5 14.5 82 1.8 ESE 24 30 13 16 - - 0.0
23/09:30am 17.1 14.0 14.6 85 1.4 ESE 24 32 13 17 - - 0.0
23/09:00am 16.8 13.7 14.4 86 1.4 SE 24 33 13 18 - - 0.0
23/08:30am 16.6 14.5 14.8 89 1.0 SE 19 26 10 14 - - 0.0
23/08:00am 16.4 14.8 14.9 91 0.9 SE 17 22 9 12 - - 0.0
23/07:30am 16.4 14.3 14.8 90 0.9 SE 19 24 10 13 - - 0.0
23/07:00am 16.3 13.6 14.7 90 0.9 SE 22 30 12 16 - - 0.0
23/06:30am 16.2 13.8 14.4 89 1.0 SE 20 28 11 15 - - 0.0
23/06:00am 16.3 14.6 14.8 91 0.9 SE 17 22 9 12 - - 0.0
23/05:30am 16.2 14.5 14.7 91 0.9 SE 17 22 9 12 - - 0.0
23/05:00am 16.1 14.0 14.6 91 0.9 SE 19 24 10 13 - - 0.0
23/04:30am 16.2 13.9 14.6 90 0.9 SE 20 28 11 15 - - 0.0
23/04:00am 16.3 15.0 14.7 90 0.9 SE 15 20 8 11 - - 0.0
23/03:30am 16.2 14.8 14.6 90 0.9 SE 15 20 8 11 - - 0.0
23/03:00am 16.2 14.4 14.4 89 1.0 SE 17 22 9 12 - - 0.0
23/02:30am 16.1 13.9 14.3 89 1.0 SSE 19 24 10 13 - - 0.0
23/02:00am 16.1 13.7 14.3 89 1.0 SE 20 26 11 14 - - 0.0
23/01:30am 16.0 13.1 14.0 88 1.1 SE 22 32 12 17 - - 0.0
23/01:00am 15.9 13.0 13.9 88 1.1 SE 22 32 12 17 - - 0.0
23/12:30am 15.8 13.3 13.6 87 1.2 SE 19 28 10 15 - - 0.0
23/12:00am 15.7 13.0 13.4 86 1.3 SSE 20 26 11 14 - - 0.0
 
Date/Time
CDT
Temp
°C
App
Temp
°C
Dew
Point
°C
Rel
Hum
%
Delta-T
°C
Wind Press
QNH
hPa
Press
MSL
hPa
Rain since
9am
mm
Dir  Spd
km/h
Gust
km/h
Spd
kts
Gust
kts
22/11:30pm 15.7 13.2 13.4 86 1.3 SE 19 26 10 14 - - 0.0
22/11:00pm 15.7 12.1 13.2 85 1.4 SE 24 32 13 17 - - 0.0
22/10:30pm 15.5 11.9 13.0 85 1.4 SE 24 32 13 17 - - 0.0
22/10:00pm 15.7 11.7 13.0 84 1.5 SE 26 35 14 19 - - 0.0
22/09:30pm 15.7 12.5 13.2 85 1.4 SE 22 30 12 16 - - 0.0
22/09:00pm 15.8 11.4 12.9 83 1.6 SE 28 37 15 20 - - 0.0
22/08:30pm 15.9 12.3 13.2 84 1.5 SE 24 33 13 18 - - 0.0
22/08:00pm 16.0 11.3 13.3 84 1.5 SE 30 37 16 20 - - 0.0
22/07:30pm 16.1 11.4 13.2 83 1.6 SE 30 41 16 22 - - 0.0
22/07:00pm 16.3 11.6 13.2 82 1.7 SSE 30 43 16 23 - - 0.0
22/06:30pm 16.4 12.6 13.5 83 1.6 SE 26 35 14 19 - - 0.0
22/06:00pm 16.7 12.5 13.6 82 1.8 SE 28 37 15 20 - - 0.0
22/05:30pm 16.9 12.8 13.8 82 1.8 SE 28 37 15 20 - - 0.0
22/05:00pm 17.2 12.5 13.3 78 2.2 SE 30 39 16 21 - - 0.0
22/04:30pm 17.9 13.5 14.0 78 2.2 SSE 30 39 16 21 - - 0.0
22/04:00pm 18.0 13.7 14.5 80 2.0 SE 30 39 16 21 - - 0.0
22/03:30pm 18.1 13.7 14.2 78 2.3 SE 30 41 16 22 - - 0.0
22/03:00pm 17.9 13.4 15.0 83 1.7 SE 32 41 17 22 - - 0.0
22/02:30pm 18.4 14.4 15.1 81 1.9 SSE 30 39 16 21 - - 0.0
22/02:00pm 18.2 14.3 14.3 78 2.3 SE 28 37 15 20 - - 0.0
22/01:30pm 17.7 14.0 15.0 84 1.6 SE 28 39 15 21 - - 0.0
22/01:00pm 17.4 14.1 14.9 85 1.5 SE 26 35 14 19 - - 0.0
22/12:30pm 18.2 14.6 15.3 83 1.7 SE 28 39 15 21 - - 0.0
22/12:00pm 17.8 12.5 14.1 79 2.1 SE 35 46 19 25 - - 0.0
22/11:30am 17.8 13.4 15.2 85 1.5 SE 32 44 17 24 - - 0.0
22/11:00am 17.9 13.1 14.6 81 1.9 SE 33 44 18 24 - - 0.0
22/10:30am 17.0 12.0 15.0 88 1.2 SE 35 48 19 26 - - 0.0
22/10:00am 16.8 12.5 15.8 94 0.6 SE 33 43 18 23 - - 0.0
22/09:30am 16.5 12.2 15.4 93 0.6 SE 32 43 17 23 - - 0.0
22/09:00am 16.3 13.5 15.3 94 0.6 SE 24 32 13 17 - - 0.0
22/08:30am 16.0 13.4 15.0 94 0.6 SSE 22 32 12 17 - - 0.0
22/08:00am 16.2 12.9 14.9 92 0.8 SE 26 37 14 20 - - 0.0
22/07:30am 16.3 13.2 14.5 89 1.0 SE 24 41 13 22 - - 0.0
22/07:00am 16.3 13.6 14.5 89 1.0 SSE 22 33 12 18 - - 0.0
22/06:30am 16.9 13.3 14.2 84 1.6 SSE 26 37 14 20 - - 0.0
22/06:00am 16.9 13.3 14.2 84 1.6 SE 26 35 14 19 - - 0.0
22/05:30am 16.8 13.7 14.6 87 1.3 SE 24 33 13 18 - - 0.0
22/05:00am 17.1 13.4 14.9 87 1.3 SE 28 39 15 21 - - 0.0
22/04:30am 17.1 13.0 14.9 87 1.3 SSE 30 41 16 22 - - 0.0
22/04:00am 17.1 13.0 14.9 87 1.3 SSE 30 39 16 21 - - 0.0
22/03:30am 17.1 12.0 14.7 86 1.4 SSE 35 46 19 25 - - 0.0
22/03:00am 17.3 12.3 15.1 87 1.3 SSE 35 48 19 26 - - 0.0
22/02:30am 17.2 12.6 15.2 88 1.2 SE 33 44 18 24 - - 0.0
22/02:00am 17.1 13.1 15.3 89 1.1 SE 30 39 16 21 - - 0.0
22/01:33am 17.2 12.9 15.4 89 1.1 SE 32 50 17 27 - - 0.0
22/01:30am 17.2 13.3 15.5 90 1.0 SE 30 39 16 21 - - 0.0
22/01:00am 17.2 13.3 15.5 90 1.0 SSE 30 37 16 20 - - 0.0
22/12:30am 17.1 13.2 15.4 90 1.0 SSE 30 41 16 22 - - 0.0
22/12:00am 16.9 12.9 15.2 90 1.0 SSE 30 39 16 21 - - 0.0
 
Date/Time
CDT
Temp
°C
App
Temp
°C
Dew
Point
°C
Rel
Hum
%
Delta-T
°C
Wind Press
QNH
hPa
Press
MSL
hPa
Rain since
9am
mm
Dir  Spd
km/h
Gust
km/h
Spd
kts
Gust
kts
21/11:30pm 17.3 12.8 15.5 89 1.1 SSE 33 46 18 25 - - 0.0
21/11:00pm 17.6 13.3 15.8 89 1.1 SSE 33 46 18 25 - - 0.0
21/10:30pm 17.8 13.7 16.0 89 1.1 SSE 32 43 17 23 - - 0.0
21/10:00pm 17.6 13.8 15.8 89 1.1 SSE 30 46 16 25 - - 0.0
21/09:53pm 17.6 14.2 15.8 89 1.1 SSE 28 46 15 25 - - 0.0
21/09:30pm 17.6 14.2 15.8 89 1.1 SE 28 39 15 21 - - 0.0
21/09:00pm 17.7 14.3 15.9 89 1.1 SSE 28 39 15 21 - - 0.0
21/08:30pm 17.9 14.2 15.9 88 1.2 SE 30 39 16 21 - - 0.0
21/08:08pm 17.9 14.6 16.1 89 1.1 SSE 28 48 15 26 - - 0.0
21/08:00pm 17.9 14.2 16.1 89 1.1 SSE 30 39 16 21 - - 0.0
21/07:30pm 18.0 15.1 16.2 89 1.1 SSE 26 35 14 19 - - 0.0
21/07:00pm 18.1 15.7 16.4 90 1.0 SSE 24 33 13 18 - - 0.0
21/06:30pm 18.1 14.9 16.4 90 1.0 SSE 28 37 15 20 - - 0.0
21/06:00pm 18.4 15.6 16.4 88 1.2 SSE 26 35 14 19 - - 0.0
21/05:30pm 18.7 16.0 16.5 87 1.3 SSE 26 32 14 17 - - 0.0
21/05:00pm 19.3 15.9 16.7 85 1.6 SSE 30 41 16 22 - - 0.0
21/04:30pm 19.6 16.5 16.6 83 1.8 SSE 28 37 15 20 - - 0.0
21/04:00pm 20.6 17.8 17.2 81 2.1 SSE 28 35 15 19 - - 0.0
21/03:30pm 21.6 18.6 16.8 74 2.9 SSE 28 37 15 20 - - 0.0
21/03:00pm 23.2 20.6 17.9 72 3.3 SSE 28 41 15 22 - - 0.0
21/02:30pm 24.3 21.9 17.3 65 4.4 SE 26 35 14 19 - - 0.0
21/02:00pm 25.2 22.4 16.4 58 5.4 ESE 26 33 14 18 - - 0.0
21/01:30pm 23.6 19.9 15.9 62 4.7 E 30 39 16 21 - - 0.0
21/01:00pm 22.7 19.3 16.7 69 3.7 E 30 39 16 21 - - 0.0
21/12:30pm 22.1 18.4 17.5 75 2.9 ESE 33 43 18 23 - - 0.0
21/12:00pm 21.5 19.0 18.1 81 2.1 ESE 28 33 15 18 - - 0.0
21/11:30am 20.0 16.8 17.2 84 1.7 ESE 30 35 16 19 - - 0.0
21/11:00am 20.3 19.4 17.7 85 1.6 SSE 19 22 10 12 - - 0.0
21/10:30am 20.2 19.6 17.6 85 1.6 SE 17 20 9 11 - - 0.0
21/10:00am 20.4 19.0 18.0 86 1.5 SE 22 32 12 17 - - 0.0
21/09:30am 19.4 18.4 17.9 91 0.9 SE 20 30 11 16 - - 0.0
21/09:00am 18.6 17.7 18.1 97 0.3 SE 20 28 11 15 - - 17.2
21/08:30am 18.0 15.7 17.5 97 0.3 SSE 26 37 14 20 - - 17.2
21/08:00am 17.9 14.8 17.4 97 0.3 SSE 30 37 16 20 - - 17.2
21/07:30am 17.9 15.1 17.4 97 0.3 SSE 28 37 15 20 - - 17.2
21/07:00am 17.9 15.5 17.4 97 0.3 S 26 37 14 20 - - 17.2
21/06:30am 18.1 15.0 17.6 97 0.3 SSW 30 43 16 23 - - 17.2
21/06:27am 18.2 15.6 17.7 97 0.3 SSW 28 43 15 23 - - 17.0
21/06:00am 17.9 16.8 17.3 96 0.4 SSE 19 28 10 15 - - 16.4
21/05:30am 18.1 15.4 17.5 96 0.4 SE 28 35 15 19 - - 15.8
21/05:00am 18.6 16.0 17.9 96 0.4 SE 28 37 15 20 - - 14.8
21/04:30am 18.6 16.8 17.9 96 0.4 SSE 24 39 13 21 - - 13.6
21/04:00am 18.5 15.9 17.9 96 0.4 ESE 28 41 15 22 - - 8.6
21/03:35am 18.4 17.3 17.8 96 0.4 S 20 48 11 26 - - 7.2
21/03:30am 18.4 19.7 17.6 95 0.5 SSW 7 20 4 11 - - 2.8
21/03:00am 18.0 16.9 17.2 95 0.5 SSE 19 22 10 12 - - 0.0
21/02:30am 17.9 16.7 17.1 95 0.5 SSE 19 22 10 12 - - 0.0
21/02:00am 17.9 16.2 17.1 95 0.5 SE 22 30 12 16 - - 0.0
21/01:30am 18.1 16.4 17.1 94 0.6 SE 22 32 12 17 - - 0.0
21/01:00am 18.2 17.0 17.4 95 0.5 SE 20 30 11 16 - - 0.0
21/12:30am 18.1 16.7 17.1 94 0.6 SE 20 26 11 14 - - 0.0
21/12:00am 18.1 15.6 17.1 94 0.6 SE 26 32 14 17 - - 0.0
 
Date/Time
CDT
Temp
°C
App
Temp
°C
Dew
Point
°C
Rel
Hum
%
Delta-T
°C
Wind Press
QNH
hPa
Press
MSL
hPa
Rain since
9am
mm
Dir  Spd
km/h
Gust
km/h
Spd
kts
Gust
kts
20/11:30pm 18.2 17.1 17.2 94 0.6 SE 19 28 10 15 - - 0.0
20/11:00pm 18.1 17.3 17.1 94 0.6 SSE 17 22 9 12 - - 0.0
20/10:30pm 18.0 17.1 16.9 93 0.7 SSE 17 20 9 11 - - 0.0
20/10:00pm 18.0 17.5 16.9 93 0.7 SSE 15 19 8 10 - - 0.0
20/09:30pm 18.0 16.7 16.7 92 0.8 SSE 19 24 10 13 - - 0.0
20/09:00pm 18.1 17.1 16.6 91 0.9 SSE 17 20 9 11 - - 0.0
20/08:30pm 18.4 17.4 16.7 90 1.0 S 17 20 9 11 - - 0.0
20/08:00pm 18.9 17.3 16.5 86 1.4 SSE 20 26 11 14 - - 0.0
20/07:30pm 19.1 17.4 16.3 84 1.7 SSE 20 28 11 15 - - 0.0
20/07:00pm 19.3 17.9 16.5 84 1.7 SSE 19 28 10 15 - - 0.0
20/06:30pm 19.7 17.0 16.5 82 1.9 SSE 26 33 14 18 - - 0.0
20/06:00pm 20.6 17.8 16.4 77 2.5 S 26 35 14 19 - - 0.0
20/05:30pm 20.6 17.8 16.4 77 2.5 S 26 33 14 18 - - 0.0
20/05:00pm 21.9 19.2 16.6 72 3.2 SSW 26 33 14 18 - - 0.0
20/04:30pm 22.9 21.6 16.7 68 3.8 S 19 28 10 15 - - 0.0
20/04:00pm 23.9 20.7 16.2 62 4.7 SSE 28 35 15 19 - - 0.0
20/03:30pm 24.3 21.9 16.3 61 4.9 SSE 24 32 13 17 - - 0.0
20/03:00pm 24.6 22.8 16.1 59 5.2 SSE 20 32 11 17 - - 0.0
20/02:30pm 24.9 22.6 15.8 57 5.6 SSE 22 30 12 16 - - 0.0
20/02:00pm 24.4 22.6 16.1 60 5.1 S 20 28 11 15 - - 0.0
20/01:30pm 23.9 22.3 15.9 61 4.9 SSE 19 32 10 17 - - 0.0
20/01:00pm 23.6 21.3 16.6 65 4.3 SSE 24 32 13 17 - - 0.0

Other Formats:

Comma delimited format used in spreadsheet applications
http://www.bom.gov.au/fwo/IDS60801/IDS60801.94807.axf

JavaScript Object Notation format (JSON) in row-major order
http://www.bom.gov.au/fwo/IDS60801/IDS60801.94807.json